sensor_id;sensor_type;location;lat;lon;timestamp;temperature;humidity
6307;DHT22;3186;54.062;9.962;2023-05-21T00:01:42;14.70;43.30
6307;DHT22;3186;54.062;9.962;2023-05-21T00:06:36;14.60;43.10
6307;DHT22;3186;54.062;9.962;2023-05-21T00:09:05;14.70;45.10
6307;DHT22;3186;54.062;9.962;2023-05-21T00:11:31;14.60;44.90
6307;DHT22;3186;54.062;9.962;2023-05-21T00:13:57;14.60;44.50
6307;DHT22;3186;54.062;9.962;2023-05-21T00:16:24;14.50;45.50
6307;DHT22;3186;54.062;9.962;2023-05-21T00:18:50;14.60;45.80
6307;DHT22;3186;54.062;9.962;2023-05-21T00:21:16;14.60;45.80
6307;DHT22;3186;54.062;9.962;2023-05-21T00:23:42;14.50;45.80
6307;DHT22;3186;54.062;9.962;2023-05-21T00:26:10;14.50;45.90
6307;DHT22;3186;54.062;9.962;2023-05-21T00:28:36;14.50;48.00
6307;DHT22;3186;54.062;9.962;2023-05-21T00:31:01;14.50;47.60
6307;DHT22;3186;54.062;9.962;2023-05-21T00:33:27;14.40;48.30
6307;DHT22;3186;54.062;9.962;2023-05-21T00:35:54;14.40;49.60
6307;DHT22;3186;54.062;9.962;2023-05-21T00:38:22;14.40;50.30
6307;DHT22;3186;54.062;9.962;2023-05-21T00:40:48;14.40;49.20
6307;DHT22;3186;54.062;9.962;2023-05-21T00:43:14;14.30;51.00
6307;DHT22;3186;54.062;9.962;2023-05-21T00:45:40;14.30;51.70
6307;DHT22;3186;54.062;9.962;2023-05-21T00:48:12;14.30;51.60
6307;DHT22;3186;54.062;9.962;2023-05-21T00:50:40;14.20;51.70
6307;DHT22;3186;54.062;9.962;2023-05-21T00:53:06;14.20;53.90
6307;DHT22;3186;54.062;9.962;2023-05-21T00:55:36;14.30;53.70
6307;DHT22;3186;54.062;9.962;2023-05-21T00:58:02;14.30;54.70
6307;DHT22;3186;54.062;9.962;2023-05-21T01:00:34;14.20;56.40
6307;DHT22;3186;54.062;9.962;2023-05-21T01:03:00;14.10;55.50
6307;DHT22;3186;54.062;9.962;2023-05-21T01:05:27;14.10;57.10
6307;DHT22;3186;54.062;9.962;2023-05-21T01:07:54;14.10;56.50
6307;DHT22;3186;54.062;9.962;2023-05-21T01:10:22;14.20;57.00
6307;DHT22;3186;54.062;9.962;2023-05-21T01:12:48;14.10;56.40
6307;DHT22;3186;54.062;9.962;2023-05-21T01:15:15;14.10;59.40
6307;DHT22;3186;54.062;9.962;2023-05-21T01:17:41;14.10;60.40
6307;DHT22;3186;54.062;9.962;2023-05-21T01:20:11;14.10;59.10
6307;DHT22;3186;54.062;9.962;2023-05-21T01:22:41;14.10;59.40
6307;DHT22;3186;54.062;9.962;2023-05-21T01:25:09;14.00;61.00
6307;DHT22;3186;54.062;9.962;2023-05-21T01:27:35;14.00;61.90
6307;DHT22;3186;54.062;9.962;2023-05-21T01:30:01;14.00;64.10
6307;DHT22;3186;54.062;9.962;2023-05-21T01:32:37;14.00;64.20
6307;DHT22;3186;54.062;9.962;2023-05-21T01:35:08;13.90;62.60
6307;DHT22;3186;54.062;9.962;2023-05-21T01:42:56;13.90;68.30
6307;DHT22;3186;54.062;9.962;2023-05-21T01:45:24;13.90;58.00
6307;DHT22;3186;54.062;9.962;2023-05-21T01:47:53;13.90;58.10
6307;DHT22;3186;54.062;9.962;2023-05-21T01:50:22;13.90;61.50
6307;DHT22;3186;54.062;9.962;2023-05-21T01:52:53;13.80;61.00
6307;DHT22;3186;54.062;9.962;2023-05-21T01:55:22;13.80;59.90
6307;DHT22;3186;54.062;9.962;2023-05-21T01:57:53;13.80;61.10
6307;DHT22;3186;54.062;9.962;2023-05-21T02:00:20;13.80;62.00
6307;DHT22;3186;54.062;9.962;2023-05-21T02:02:47;13.70;59.80
6307;DHT22;3186;54.062;9.962;2023-05-21T02:05:13;13.70;63.10
6307;DHT22;3186;54.062;9.962;2023-05-21T02:07:39;13.70;71.60
6307;DHT22;3186;54.062;9.962;2023-05-21T02:10:06;13.70;67.20
6307;DHT22;3186;54.062;9.962;2023-05-21T02:12:32;13.70;72.70
6307;DHT22;3186;54.062;9.962;2023-05-21T02:14:59;13.70;65.90
6307;DHT22;3186;54.062;9.962;2023-05-21T02:17:25;13.70;66.40
6307;DHT22;3186;54.062;9.962;2023-05-21T02:19:51;13.60;69.30
6307;DHT22;3186;54.062;9.962;2023-05-21T02:27:10;13.60;67.20
6307;DHT22;3186;54.062;9.962;2023-05-21T02:29:38;13.60;66.90
6307;DHT22;3186;54.062;9.962;2023-05-21T02:32:04;13.60;68.90
6307;DHT22;3186;54.062;9.962;2023-05-21T02:34:30;13.60;67.30
6307;DHT22;3186;54.062;9.962;2023-05-21T02:36:57;13.60;68.90
6307;DHT22;3186;54.062;9.962;2023-05-21T02:39:23;13.60;70.30
6307;DHT22;3186;54.062;9.962;2023-05-21T02:41:50;13.60;68.40
6307;DHT22;3186;54.062;9.962;2023-05-21T02:44:16;13.60;68.50
6307;DHT22;3186;54.062;9.962;2023-05-21T02:46:44;13.50;70.00
6307;DHT22;3186;54.062;9.962;2023-05-21T02:51:38;13.50;69.70
6307;DHT22;3186;54.062;9.962;2023-05-21T02:54:04;13.50;71.50
6307;DHT22;3186;54.062;9.962;2023-05-21T02:56:30;13.40;72.40
6307;DHT22;3186;54.062;9.962;2023-05-21T02:58:56;13.50;72.70
6307;DHT22;3186;54.062;9.962;2023-05-21T03:01:22;13.50;75.80
6307;DHT22;3186;54.062;9.962;2023-05-21T03:03:47;13.40;77.10
6307;DHT22;3186;54.062;9.962;2023-05-21T03:06:13;13.40;77.60
6307;DHT22;3186;54.062;9.962;2023-05-21T03:08:40;13.40;77.20
6307;DHT22;3186;54.062;9.962;2023-05-21T03:11:06;13.40;77.20
6307;DHT22;3186;54.062;9.962;2023-05-21T03:13:32;13.40;77.30
6307;DHT22;3186;54.062;9.962;2023-05-21T03:15:58;13.40;78.60
6307;DHT22;3186;54.062;9.962;2023-05-21T03:18:24;13.40;80.20
6307;DHT22;3186;54.062;9.962;2023-05-21T03:20:51;13.30;85.50
6307;DHT22;3186;54.062;9.962;2023-05-21T03:23:17;13.30;83.50
6307;DHT22;3186;54.062;9.962;2023-05-21T03:25:43;13.30;84.60
6307;DHT22;3186;54.062;9.962;2023-05-21T03:28:10;13.30;85.20
6307;DHT22;3186;54.062;9.962;2023-05-21T03:30:47;13.40;85.50
6307;DHT22;3186;54.062;9.962;2023-05-21T03:33:39;13.30;85.00
6307;DHT22;3186;54.062;9.962;2023-05-21T03:36:20;13.30;86.10
6307;DHT22;3186;54.062;9.962;2023-05-21T03:38:46;13.30;88.40
6307;DHT22;3186;54.062;9.962;2023-05-21T03:41:12;13.30;88.10
6307;DHT22;3186;54.062;9.962;2023-05-21T03:43:40;13.30;90.10
6307;DHT22;3186;54.062;9.962;2023-05-21T03:46:06;13.30;90.60
6307;DHT22;3186;54.062;9.962;2023-05-21T03:48:52;13.10;90.20
6307;DHT22;3186;54.062;9.962;2023-05-21T03:51:21;13.20;88.10
6307;DHT22;3186;54.062;9.962;2023-05-21T03:53:47;13.20;91.00
6307;DHT22;3186;54.062;9.962;2023-05-21T03:56:13;13.20;90.50
6307;DHT22;3186;54.062;9.962;2023-05-21T03:58:40;13.20;92.80
6307;DHT22;3186;54.062;9.962;2023-05-21T04:01:06;13.30;91.80
6307;DHT22;3186;54.062;9.962;2023-05-21T04:03:34;13.20;91.80
6307;DHT22;3186;54.062;9.962;2023-05-21T04:06:01;13.20;91.90
6307;DHT22;3186;54.062;9.962;2023-05-21T04:08:27;13.20;91.50
6307;DHT22;3186;54.062;9.962;2023-05-21T04:10:53;13.20;91.80
6307;DHT22;3186;54.062;9.962;2023-05-21T04:13:19;13.30;90.90
6307;DHT22;3186;54.062;9.962;2023-05-21T04:15:45;13.20;91.40
6307;DHT22;3186;54.062;9.962;2023-05-21T04:18:12;13.20;92.80
6307;DHT22;3186;54.062;9.962;2023-05-21T04:20:45;13.20;92.40
6307;DHT22;3186;54.062;9.962;2023-05-21T04:23:11;13.30;92.20
6307;DHT22;3186;54.062;9.962;2023-05-21T04:25:36;13.20;92.50
6307;DHT22;3186;54.062;9.962;2023-05-21T04:28:05;13.20;92.80
6307;DHT22;3186;54.062;9.962;2023-05-21T04:30:30;13.30;94.00
6307;DHT22;3186;54.062;9.962;2023-05-21T04:33:01;13.30;93.40
6307;DHT22;3186;54.062;9.962;2023-05-21T04:35:27;13.30;99.90
6307;DHT22;3186;54.062;9.962;2023-05-21T04:37:53;13.30;94.50
6307;DHT22;3186;54.062;9.962;2023-05-21T04:40:20;13.30;94.70
6307;DHT22;3186;54.062;9.962;2023-05-21T04:42:52;13.30;95.00
6307;DHT22;3186;54.062;9.962;2023-05-21T04:45:21;13.30;93.50
6307;DHT22;3186;54.062;9.962;2023-05-21T04:47:50;13.40;93.40
6307;DHT22;3186;54.062;9.962;2023-05-21T04:50:16;13.40;93.40
6307;DHT22;3186;54.062;9.962;2023-05-21T04:52:43;13.30;93.10
6307;DHT22;3186;54.062;9.962;2023-05-21T04:55:10;13.40;93.80
6307;DHT22;3186;54.062;9.962;2023-05-21T04:57:36;13.40;94.80
6307;DHT22;3186;54.062;9.962;2023-05-21T05:00:02;13.40;96.00
6307;DHT22;3186;54.062;9.962;2023-05-21T05:02:36;13.40;95.50
6307;DHT22;3186;54.062;9.962;2023-05-21T05:05:02;13.40;95.40
6307;DHT22;3186;54.062;9.962;2023-05-21T05:07:28;13.50;96.00
6307;DHT22;3186;54.062;9.962;2023-05-21T05:09:54;13.50;95.70
6307;DHT22;3186;54.062;9.962;2023-05-21T05:12:19;13.50;96.20
6307;DHT22;3186;54.062;9.962;2023-05-21T05:14:45;13.50;99.60
6307;DHT22;3186;54.062;9.962;2023-05-21T05:17:11;13.50;99.90
6307;DHT22;3186;54.062;9.962;2023-05-21T05:19:39;13.50;97.90
6307;DHT22;3186;54.062;9.962;2023-05-21T05:22:06;13.50;99.90
6307;DHT22;3186;54.062;9.962;2023-05-21T05:24:32;13.50;99.90
6307;DHT22;3186;54.062;9.962;2023-05-21T05:26:58;13.50;99.90
6307;DHT22;3186;54.062;9.962;2023-05-21T05:29:24;13.60;99.10
6307;DHT22;3186;54.062;9.962;2023-05-21T05:31:50;13.70;99.90
6307;DHT22;3186;54.062;9.962;2023-05-21T05:34:15;13.70;99.90
6307;DHT22;3186;54.062;9.962;2023-05-21T05:36:41;14.10;99.90
6307;DHT22;3186;54.062;9.962;2023-05-21T05:39:07;13.70;99.90
6307;DHT22;3186;54.062;9.962;2023-05-21T05:41:33;13.80;99.90
6307;DHT22;3186;54.062;9.962;2023-05-21T05:43:59;13.90;99.90
6307;DHT22;3186;54.062;9.962;2023-05-21T05:46:28;13.90;99.90
6307;DHT22;3186;54.062;9.962;2023-05-21T05:48:54;13.90;99.90
6307;DHT22;3186;54.062;9.962;2023-05-21T05:51:20;14.00;99.90
6307;DHT22;3186;54.062;9.962;2023-05-21T05:56:12;14.00;99.90
6307;DHT22;3186;54.062;9.962;2023-05-21T05:58:40;14.10;99.90
6307;DHT22;3186;54.062;9.962;2023-05-21T06:01:09;14.10;99.90
6307;DHT22;3186;54.062;9.962;2023-05-21T06:03:36;14.20;99.90
6307;DHT22;3186;54.062;9.962;2023-05-21T06:06:09;14.20;99.90
6307;DHT22;3186;54.062;9.962;2023-05-21T06:08:36;14.20;99.90
6307;DHT22;3186;54.062;9.962;2023-05-21T06:11:02;14.30;99.90
6307;DHT22;3186;54.062;9.962;2023-05-21T06:13:28;14.50;99.90
6307;DHT22;3186;54.062;9.962;2023-05-21T06:15:55;14.40;99.90
6307;DHT22;3186;54.062;9.962;2023-05-21T06:18:20;14.60;99.90
6307;DHT22;3186;54.062;9.962;2023-05-21T06:20:46;14.60;99.90
6307;DHT22;3186;54.062;9.962;2023-05-21T06:23:12;15.00;99.90
6307;DHT22;3186;54.062;9.962;2023-05-21T06:25:39;15.00;99.90
6307;DHT22;3186;54.062;9.962;2023-05-21T06:28:07;15.20;99.90
6307;DHT22;3186;54.062;9.962;2023-05-21T06:30:33;15.30;99.90
6307;DHT22;3186;54.062;9.962;2023-05-21T06:33:00;15.40;99.90
6307;DHT22;3186;54.062;9.962;2023-05-21T06:35:25;15.50;99.90
6307;DHT22;3186;54.062;9.962;2023-05-21T06:37:51;15.50;99.90
6307;DHT22;3186;54.062;9.962;2023-05-21T06:40:18;15.50;99.90
6307;DHT22;3186;54.062;9.962;2023-05-21T06:42:45;15.50;99.90
6307;DHT22;3186;54.062;9.962;2023-05-21T06:45:29;15.70;99.90
6307;DHT22;3186;54.062;9.962;2023-05-21T06:50:25;15.90;99.90
6307;DHT22;3186;54.062;9.962;2023-05-21T06:52:52;16.10;99.90
6307;DHT22;3186;54.062;9.962;2023-05-21T06:55:19;15.80;99.90
6307;DHT22;3186;54.062;9.962;2023-05-21T06:58:20;15.90;99.90
6307;DHT22;3186;54.062;9.962;2023-05-21T07:00:47;15.90;99.90
6307;DHT22;3186;54.062;9.962;2023-05-21T07:05:40;16.10;99.90
6307;DHT22;3186;54.062;9.962;2023-05-21T07:08:06;16.20;99.90
6307;DHT22;3186;54.062;9.962;2023-05-21T07:10:32;16.30;99.90
6307;DHT22;3186;54.062;9.962;2023-05-21T07:12:57;16.40;99.90
6307;DHT22;3186;54.062;9.962;2023-05-21T07:15:23;16.60;99.90
6307;DHT22;3186;54.062;9.962;2023-05-21T07:17:49;17.10;99.90
6307;DHT22;3186;54.062;9.962;2023-05-21T07:20:15;16.80;99.90
6307;DHT22;3186;54.062;9.962;2023-05-21T07:22:45;16.70;99.90
6307;DHT22;3186;54.062;9.962;2023-05-21T07:25:13;16.70;99.90
6307;DHT22;3186;54.062;9.962;2023-05-21T07:30:05;17.00;99.90
6307;DHT22;3186;54.062;9.962;2023-05-21T07:32:32;17.20;99.90
6307;DHT22;3186;54.062;9.962;2023-05-21T07:34:59;17.30;99.90
6307;DHT22;3186;54.062;9.962;2023-05-21T07:37:27;17.50;99.90
6307;DHT22;3186;54.062;9.962;2023-05-21T07:42:26;17.80;99.90
6307;DHT22;3186;54.062;9.962;2023-05-21T07:44:54;18.30;99.90
6307;DHT22;3186;54.062;9.962;2023-05-21T07:47:22;18.30;99.90
6307;DHT22;3186;54.062;9.962;2023-05-21T07:49:49;18.40;99.90
6307;DHT22;3186;54.062;9.962;2023-05-21T07:52:15;18.40;99.90
6307;DHT22;3186;54.062;9.962;2023-05-21T07:54:41;18.30;99.90
6307;DHT22;3186;54.062;9.962;2023-05-21T07:57:07;18.30;99.90
6307;DHT22;3186;54.062;9.962;2023-05-21T08:00:07;18.30;99.90
6307;DHT22;3186;54.062;9.962;2023-05-21T08:02:44;18.50;99.90
6307;DHT22;3186;54.062;9.962;2023-05-21T08:05:13;18.50;99.90
6307;DHT22;3186;54.062;9.962;2023-05-21T08:07:41;18.70;99.90
6307;DHT22;3186;54.062;9.962;2023-05-21T08:10:08;18.70;99.90
6307;DHT22;3186;54.062;9.962;2023-05-21T08:12:34;18.70;99.90
6307;DHT22;3186;54.062;9.962;2023-05-21T08:15:00;18.70;99.90
6307;DHT22;3186;54.062;9.962;2023-05-21T08:17:26;18.80;99.90
6307;DHT22;3186;54.062;9.962;2023-05-21T08:22:20;19.10;99.90
6307;DHT22;3186;54.062;9.962;2023-05-21T08:24:45;19.40;99.90
6307;DHT22;3186;54.062;9.962;2023-05-21T08:27:12;19.40;99.90
6307;DHT22;3186;54.062;9.962;2023-05-21T08:29:41;19.20;99.90
6307;DHT22;3186;54.062;9.962;2023-05-21T08:32:07;19.00;99.90
6307;DHT22;3186;54.062;9.962;2023-05-21T08:34:34;19.10;99.90
6307;DHT22;3186;54.062;9.962;2023-05-21T08:37:23;18.90;99.90
6307;DHT22;3186;54.062;9.962;2023-05-21T08:40:15;19.20;99.90
6307;DHT22;3186;54.062;9.962;2023-05-21T08:42:44;19.10;99.90
6307;DHT22;3186;54.062;9.962;2023-05-21T08:45:22;20.00;99.90
6307;DHT22;3186;54.062;9.962;2023-05-21T08:47:54;19.80;99.90
6307;DHT22;3186;54.062;9.962;2023-05-21T08:50:25;19.60;99.90
6307;DHT22;3186;54.062;9.962;2023-05-21T08:55:20;19.70;99.90
6307;DHT22;3186;54.062;9.962;2023-05-21T09:00:16;20.20;99.90
6307;DHT22;3186;54.062;9.962;2023-05-21T09:02:44;20.00;99.90
6307;DHT22;3186;54.062;9.962;2023-05-21T09:05:12;20.10;99.90
6307;DHT22;3186;54.062;9.962;2023-05-21T09:07:58;20.10;99.90
6307;DHT22;3186;54.062;9.962;2023-05-21T09:10:39;20.10;99.90
6307;DHT22;3186;54.062;9.962;2023-05-21T09:13:05;20.50;99.90
6307;DHT22;3186;54.062;9.962;2023-05-21T09:15:32;20.50;99.90
6307;DHT22;3186;54.062;9.962;2023-05-21T09:17:58;20.60;99.90
6307;DHT22;3186;54.062;9.962;2023-05-21T09:20:39;21.00;99.90
6307;DHT22;3186;54.062;9.962;2023-05-21T09:25:37;21.30;99.90
6307;DHT22;3186;54.062;9.962;2023-05-21T09:28:15;21.30;99.90
6307;DHT22;3186;54.062;9.962;2023-05-21T09:30:45;21.10;99.90
6307;DHT22;3186;54.062;9.962;2023-05-21T09:33:12;21.20;99.90
6307;DHT22;3186;54.062;9.962;2023-05-21T09:35:49;21.30;99.90
6307;DHT22;3186;54.062;9.962;2023-05-21T09:38:15;21.40;99.90
6307;DHT22;3186;54.062;9.962;2023-05-21T09:40:43;21.90;99.90
6307;DHT22;3186;54.062;9.962;2023-05-21T09:45:54;21.50;99.60
6307;DHT22;3186;54.062;9.962;2023-05-21T09:53:33;21.40;97.40
6307;DHT22;3186;54.062;9.962;2023-05-21T09:55:59;21.50;99.90
6307;DHT22;3186;54.062;9.962;2023-05-21T09:58:25;21.80;99.90
6307;DHT22;3186;54.062;9.962;2023-05-21T10:00:51;21.80;99.70
6307;DHT22;3186;54.062;9.962;2023-05-21T10:03:18;21.90;98.50
6307;DHT22;3186;54.062;9.962;2023-05-21T10:05:49;21.80;98.60
6307;DHT22;3186;54.062;9.962;2023-05-21T10:08:17;21.90;99.70
6307;DHT22;3186;54.062;9.962;2023-05-21T10:13:13;21.90;99.90
6307;DHT22;3186;54.062;9.962;2023-05-21T10:15:50;21.90;96.80
6307;DHT22;3186;54.062;9.962;2023-05-21T10:18:17;22.00;98.90
6307;DHT22;3186;54.062;9.962;2023-05-21T10:20:46;22.20;98.30
6307;DHT22;3186;54.062;9.962;2023-05-21T10:23:12;22.20;96.50
6307;DHT22;3186;54.062;9.962;2023-05-21T10:25:39;22.20;94.60
6307;DHT22;3186;54.062;9.962;2023-05-21T10:28:05;22.00;98.80
6307;DHT22;3186;54.062;9.962;2023-05-21T10:30:31;22.10;99.90
6307;DHT22;3186;54.062;9.962;2023-05-21T10:33:00;22.30;99.90
6307;DHT22;3186;54.062;9.962;2023-05-21T10:35:26;22.70;98.80
6307;DHT22;3186;54.062;9.962;2023-05-21T10:37:53;22.50;95.20
6307;DHT22;3186;54.062;9.962;2023-05-21T10:40:20;22.50;96.70
6307;DHT22;3186;54.062;9.962;2023-05-21T10:46:01;22.60;97.30
6307;DHT22;3186;54.062;9.962;2023-05-21T10:49:12;22.70;96.60
6307;DHT22;3186;54.062;9.962;2023-05-21T10:54:54;22.60;94.60
6307;DHT22;3186;54.062;9.962;2023-05-21T10:59:58;23.30;93.30
6307;DHT22;3186;54.062;9.962;2023-05-21T11:02:25;23.20;90.60
6307;DHT22;3186;54.062;9.962;2023-05-21T11:04:58;23.20;92.40
6307;DHT22;3186;54.062;9.962;2023-05-21T11:07:51;23.20;93.70
6307;DHT22;3186;54.062;9.962;2023-05-21T11:10:38;23.10;93.10
6307;DHT22;3186;54.062;9.962;2023-05-21T11:13:07;23.00;95.10
6307;DHT22;3186;54.062;9.962;2023-05-21T11:21:09;24.00;92.00
6307;DHT22;3186;54.062;9.962;2023-05-21T11:23:51;23.90;93.70
6307;DHT22;3186;54.062;9.962;2023-05-21T11:26:18;24.10;91.30
6307;DHT22;3186;54.062;9.962;2023-05-21T11:28:49;24.20;88.90
6307;DHT22;3186;54.062;9.962;2023-05-21T11:31:26;24.10;92.10
6307;DHT22;3186;54.062;9.962;2023-05-21T11:34:20;24.40;93.50
6307;DHT22;3186;54.062;9.962;2023-05-21T11:39:42;24.20;84.40
6307;DHT22;3186;54.062;9.962;2023-05-21T11:42:08;24.20;87.10
6307;DHT22;3186;54.062;9.962;2023-05-21T11:44:44;24.30;86.20
6307;DHT22;3186;54.062;9.962;2023-05-21T11:47:15;24.40;80.80
6307;DHT22;3186;54.062;9.962;2023-05-21T11:49:42;24.60;76.80
6307;DHT22;3186;54.062;9.962;2023-05-21T11:52:10;24.60;77.80
6307;DHT22;3186;54.062;9.962;2023-05-21T11:57:11;24.50;75.10
6307;DHT22;3186;54.062;9.962;2023-05-21T12:02:05;24.70;75.10
6307;DHT22;3186;54.062;9.962;2023-05-21T12:04:33;24.90;76.50
6307;DHT22;3186;54.062;9.962;2023-05-21T12:07:08;24.90;67.30
6307;DHT22;3186;54.062;9.962;2023-05-21T12:09:47;24.90;80.10
6307;DHT22;3186;54.062;9.962;2023-05-21T12:12:17;24.90;71.80
6307;DHT22;3186;54.062;9.962;2023-05-21T12:14:48;25.00;76.30
6307;DHT22;3186;54.062;9.962;2023-05-21T12:17:16;25.20;78.00
6307;DHT22;3186;54.062;9.962;2023-05-21T12:19:44;25.40;69.70
6307;DHT22;3186;54.062;9.962;2023-05-21T12:22:10;25.60;72.20
6307;DHT22;3186;54.062;9.962;2023-05-21T12:24:37;25.80;69.00
6307;DHT22;3186;54.062;9.962;2023-05-21T12:27:05;25.80;70.30
6307;DHT22;3186;54.062;9.962;2023-05-21T12:29:36;25.80;66.50
6307;DHT22;3186;54.062;9.962;2023-05-21T12:32:07;25.90;75.20
6307;DHT22;3186;54.062;9.962;2023-05-21T12:39:38;25.70;74.70
6307;DHT22;3186;54.062;9.962;2023-05-21T12:42:05;25.40;71.60
6307;DHT22;3186;54.062;9.962;2023-05-21T12:44:31;25.30;74.00
6307;DHT22;3186;54.062;9.962;2023-05-21T12:46:57;25.30;66.90
6307;DHT22;3186;54.062;9.962;2023-05-21T12:49:39;25.70;79.20
6307;DHT22;3186;54.062;9.962;2023-05-21T12:52:10;26.10;68.30
6307;DHT22;3186;54.062;9.962;2023-05-21T12:54:38;25.80;68.50
6307;DHT22;3186;54.062;9.962;2023-05-21T12:57:15;25.80;71.20
6307;DHT22;3186;54.062;9.962;2023-05-21T12:59:58;26.20;77.30
6307;DHT22;3186;54.062;9.962;2023-05-21T13:02:25;26.10;70.70
6307;DHT22;3186;54.062;9.962;2023-05-21T13:07:20;26.00;69.40
6307;DHT22;3186;54.062;9.962;2023-05-21T13:09:46;26.00;75.20
6307;DHT22;3186;54.062;9.962;2023-05-21T13:12:13;26.20;68.70
6307;DHT22;3186;54.062;9.962;2023-05-21T13:17:05;26.30;67.40
6307;DHT22;3186;54.062;9.962;2023-05-21T13:19:31;26.30;66.90
6307;DHT22;3186;54.062;9.962;2023-05-21T13:21:57;26.50;71.30
6307;DHT22;3186;54.062;9.962;2023-05-21T13:24:23;26.50;58.50
6307;DHT22;3186;54.062;9.962;2023-05-21T13:29:15;26.70;46.20
6307;DHT22;3186;54.062;9.962;2023-05-21T13:31:42;26.80;47.40
6307;DHT22;3186;54.062;9.962;2023-05-21T13:34:09;26.50;63.70
6307;DHT22;3186;54.062;9.962;2023-05-21T13:36:35;26.60;64.90
6307;DHT22;3186;54.062;9.962;2023-05-21T13:39:01;26.50;61.30
6307;DHT22;3186;54.062;9.962;2023-05-21T13:41:27;26.90;60.00
6307;DHT22;3186;54.062;9.962;2023-05-21T13:43:53;26.60;50.00
6307;DHT22;3186;54.062;9.962;2023-05-21T13:46:19;26.60;54.40
6307;DHT22;3186;54.062;9.962;2023-05-21T13:48:45;26.90;55.50
6307;DHT22;3186;54.062;9.962;2023-05-21T13:51:11;27.10;49.90
6307;DHT22;3186;54.062;9.962;2023-05-21T13:53:36;27.40;42.40
6307;DHT22;3186;54.062;9.962;2023-05-21T13:58:30;27.40;52.90
6307;DHT22;3186;54.062;9.962;2023-05-21T14:01:00;27.50;59.80
6307;DHT22;3186;54.062;9.962;2023-05-21T14:03:26;27.30;49.80
6307;DHT22;3186;54.062;9.962;2023-05-21T14:05:53;27.30;58.10
6307;DHT22;3186;54.062;9.962;2023-05-21T14:08:19;26.90;47.90
6307;DHT22;3186;54.062;9.962;2023-05-21T14:10:46;27.20;57.00
6307;DHT22;3186;54.062;9.962;2023-05-21T14:13:12;27.30;54.40
6307;DHT22;3186;54.062;9.962;2023-05-21T14:15:38;27.30;49.00
6307;DHT22;3186;54.062;9.962;2023-05-21T14:18:05;27.60;56.40
6307;DHT22;3186;54.062;9.962;2023-05-21T14:20:34;27.40;40.50
6307;DHT22;3186;54.062;9.962;2023-05-21T14:23:01;27.70;41.20
6307;DHT22;3186;54.062;9.962;2023-05-21T14:25:26;27.70;45.90
6307;DHT22;3186;54.062;9.962;2023-05-21T14:27:52;27.40;46.10
6307;DHT22;3186;54.062;9.962;2023-05-21T14:30:18;27.80;51.50
6307;DHT22;3186;54.062;9.962;2023-05-21T14:32:44;27.80;46.70
6307;DHT22;3186;54.062;9.962;2023-05-21T14:35:10;27.70;41.20
6307;DHT22;3186;54.062;9.962;2023-05-21T14:37:36;27.90;57.60
6307;DHT22;3186;54.062;9.962;2023-05-21T14:40:02;27.70;42.70
6307;DHT22;3186;54.062;9.962;2023-05-21T14:42:29;27.80;57.40
6307;DHT22;3186;54.062;9.962;2023-05-21T14:44:55;28.10;51.40
6307;DHT22;3186;54.062;9.962;2023-05-21T14:47:21;27.70;37.50
6307;DHT22;3186;54.062;9.962;2023-05-21T14:49:47;27.90;52.10
6307;DHT22;3186;54.062;9.962;2023-05-21T14:52:13;27.90;50.30
6307;DHT22;3186;54.062;9.962;2023-05-21T14:54:38;28.10;56.00
6307;DHT22;3186;54.062;9.962;2023-05-21T14:57:04;28.00;51.50
6307;DHT22;3186;54.062;9.962;2023-05-21T14:59:30;28.00;49.60
6307;DHT22;3186;54.062;9.962;2023-05-21T15:01:56;28.00;49.50
6307;DHT22;3186;54.062;9.962;2023-05-21T15:04:22;28.20;51.80
6307;DHT22;3186;54.062;9.962;2023-05-21T15:06:48;28.00;48.90
6307;DHT22;3186;54.062;9.962;2023-05-21T15:09:14;28.20;49.00
6307;DHT22;3186;54.062;9.962;2023-05-21T15:11:40;28.10;49.00
6307;DHT22;3186;54.062;9.962;2023-05-21T15:14:08;28.10;46.80
6307;DHT22;3186;54.062;9.962;2023-05-21T15:16:34;28.10;47.00
6307;DHT22;3186;54.062;9.962;2023-05-21T15:18:59;28.10;33.20
6307;DHT22;3186;54.062;9.962;2023-05-21T15:21:25;28.10;49.30
6307;DHT22;3186;54.062;9.962;2023-05-21T15:23:51;27.90;47.50
6307;DHT22;3186;54.062;9.962;2023-05-21T15:26:17;27.90;46.60
6307;DHT22;3186;54.062;9.962;2023-05-21T15:28:42;27.90;50.80
6307;DHT22;3186;54.062;9.962;2023-05-21T15:36:01;27.90;44.40
6307;DHT22;3186;54.062;9.962;2023-05-21T15:38:27;27.50;44.10
6307;DHT22;3186;54.062;9.962;2023-05-21T15:40:53;27.50;41.20
6307;DHT22;3186;54.062;9.962;2023-05-21T15:43:19;27.60;46.20
6307;DHT22;3186;54.062;9.962;2023-05-21T15:48:11;27.40;47.10
6307;DHT22;3186;54.062;9.962;2023-05-21T15:53:03;27.50;45.00
6307;DHT22;3186;54.062;9.962;2023-05-21T15:55:32;27.40;45.10
6307;DHT22;3186;54.062;9.962;2023-05-21T15:57:58;27.20;49.90
6307;DHT22;3186;54.062;9.962;2023-05-21T16:00:25;27.40;52.50
6307;DHT22;3186;54.062;9.962;2023-05-21T16:02:51;27.20;45.40
6307;DHT22;3186;54.062;9.962;2023-05-21T16:05:16;27.30;46.90
6307;DHT22;3186;54.062;9.962;2023-05-21T16:07:42;27.30;42.80
6307;DHT22;3186;54.062;9.962;2023-05-21T16:10:09;27.20;37.90
6307;DHT22;3186;54.062;9.962;2023-05-21T16:12:35;27.10;37.20
6307;DHT22;3186;54.062;9.962;2023-05-21T16:15:01;27.20;39.50
6307;DHT22;3186;54.062;9.962;2023-05-21T16:17:27;27.30;41.00
6307;DHT22;3186;54.062;9.962;2023-05-21T16:19:53;27.20;40.80
6307;DHT22;3186;54.062;9.962;2023-05-21T16:22:19;27.10;39.60
6307;DHT22;3186;54.062;9.962;2023-05-21T16:24:46;27.10;39.80
6307;DHT22;3186;54.062;9.962;2023-05-21T16:27:12;27.00;35.70
6307;DHT22;3186;54.062;9.962;2023-05-21T16:29:38;27.00;43.40
6307;DHT22;3186;54.062;9.962;2023-05-21T16:32:04;27.00;44.60
6307;DHT22;3186;54.062;9.962;2023-05-21T16:34:30;26.90;39.80
6307;DHT22;3186;54.062;9.962;2023-05-21T16:36:56;26.90;34.00
6307;DHT22;3186;54.062;9.962;2023-05-21T16:39:23;26.90;44.10
6307;DHT22;3186;54.062;9.962;2023-05-21T16:41:48;26.80;39.30
6307;DHT22;3186;54.062;9.962;2023-05-21T16:44:14;26.70;44.00
6307;DHT22;3186;54.062;9.962;2023-05-21T16:46:40;26.60;42.70
6307;DHT22;3186;54.062;9.962;2023-05-21T16:49:06;26.40;50.10
6307;DHT22;3186;54.062;9.962;2023-05-21T16:51:32;26.50;49.50
6307;DHT22;3186;54.062;9.962;2023-05-21T16:53:57;26.40;49.40
6307;DHT22;3186;54.062;9.962;2023-05-21T16:56:23;26.40;47.50
6307;DHT22;3186;54.062;9.962;2023-05-21T16:58:49;26.60;47.50
6307;DHT22;3186;54.062;9.962;2023-05-21T17:01:15;26.50;44.80
6307;DHT22;3186;54.062;9.962;2023-05-21T17:03:40;26.50;46.80
6307;DHT22;3186;54.062;9.962;2023-05-21T17:06:06;26.50;48.50
6307;DHT22;3186;54.062;9.962;2023-05-21T17:08:32;26.50;46.40
6307;DHT22;3186;54.062;9.962;2023-05-21T17:10:58;26.40;45.80
6307;DHT22;3186;54.062;9.962;2023-05-21T17:13:24;26.40;41.30
6307;DHT22;3186;54.062;9.962;2023-05-21T17:15:50;26.40;48.60
6307;DHT22;3186;54.062;9.962;2023-05-21T17:18:15;26.30;47.10
6307;DHT22;3186;54.062;9.962;2023-05-21T17:20:41;26.20;48.40
6307;DHT22;3186;54.062;9.962;2023-05-21T17:23:08;26.20;48.40
6307;DHT22;3186;54.062;9.962;2023-05-21T17:25:35;26.10;48.60
6307;DHT22;3186;54.062;9.962;2023-05-21T17:28:01;26.10;49.10
6307;DHT22;3186;54.062;9.962;2023-05-21T17:30:26;26.20;48.60
6307;DHT22;3186;54.062;9.962;2023-05-21T17:32:52;25.90;46.70
6307;DHT22;3186;54.062;9.962;2023-05-21T17:35:19;25.90;49.20
6307;DHT22;3186;54.062;9.962;2023-05-21T17:37:44;25.90;50.70
6307;DHT22;3186;54.062;9.962;2023-05-21T17:40:11;25.90;49.20
6307;DHT22;3186;54.062;9.962;2023-05-21T17:42:38;25.90;47.30